Airport View

Enter AWOS ICAO identifier for current METAR.

ex. KFNL

KDYA 262325Z AUTO 29009G17KT 10SM SCT050 SCT060 10/00 A3011 RMK AO2 T00960002

26 Feb 2020 23:26

Frequency: 119.475

Phone: 334-289-1466

Other Area AWOS: KA08 - KMEI - KTCL - KSEM

TAF KMEI 261726Z 2618/2718 31015G21KT P6SM VCSH BKN025 FM262100 32016G22KT P6SM SCT025 BKN035 FM270300 33005KT P6SM SKC